sensor_id;sensor_type;location;lat;lon;timestamp;pressure;altitude;pressure_sealevel;temperature;humidity
51289;BME280;37372;52.294;5.152;2022-08-21T00:01:07;101779.25;;;15.93;89.30
51289;BME280;37372;52.294;5.152;2022-08-21T00:03:35;101784.09;;;15.92;89.18
51289;BME280;37372;52.294;5.152;2022-08-21T00:06:01;101775.25;;;15.90;88.91
51289;BME280;37372;52.294;5.152;2022-08-21T00:08:26;101776.47;;;15.89;89.08
51289;BME280;37372;52.294;5.152;2022-08-21T00:10:52;101770.44;;;15.87;89.24
51289;BME280;37372;52.294;5.152;2022-08-21T00:13:18;101770.09;;;15.85;89.35
51289;BME280;37372;52.294;5.152;2022-08-21T00:15:46;101773.75;;;15.82;89.46
51289;BME280;37372;52.294;5.152;2022-08-21T00:18:12;101771.38;;;15.80;89.32
51289;BME280;37372;52.294;5.152;2022-08-21T00:20:38;101769.41;;;15.77;89.51
51289;BME280;37372;52.294;5.152;2022-08-21T00:23:04;101772.22;;;15.77;89.35
51289;BME280;37372;52.294;5.152;2022-08-21T00:25:30;101769.03;;;15.75;89.76
51289;BME280;37372;52.294;5.152;2022-08-21T00:27:56;101770.31;;;15.71;89.75
51289;BME280;37372;52.294;5.152;2022-08-21T00:30:23;101760.63;;;15.68;89.74
51289;BME280;37372;52.294;5.152;2022-08-21T00:32:51;101755.38;;;15.67;89.83
51289;BME280;37372;52.294;5.152;2022-08-21T00:35:18;101757.41;;;15.66;90.09
51289;BME280;37372;52.294;5.152;2022-08-21T00:37:44;101755.38;;;15.67;90.01
51289;BME280;37372;52.294;5.152;2022-08-21T00:40:13;101756.63;;;15.66;90.11
51289;BME280;37372;52.294;5.152;2022-08-21T00:42:39;101755.38;;;15.67;89.96
51289;BME280;37372;52.294;5.152;2022-08-21T00:45:06;101754.59;;;15.66;90.17
51289;BME280;37372;52.294;5.152;2022-08-21T00:47:32;101753.78;;;15.66;90.30
51289;BME280;37372;52.294;5.152;2022-08-21T00:49:57;101746.53;;;15.64;90.75
51289;BME280;37372;52.294;5.152;2022-08-21T00:52:27;101743.34;;;15.62;90.93
51289;BME280;37372;52.294;5.152;2022-08-21T00:54:53;101749.00;;;15.62;91.04
51289;BME280;37372;52.294;5.152;2022-08-21T00:57:30;101749.41;;;15.61;91.10
51289;BME280;37372;52.294;5.152;2022-08-21T01:00:00;101753.03;;;15.61;91.46
51289;BME280;37372;52.294;5.152;2022-08-21T01:02:27;101749.03;;;15.59;91.34
51289;BME280;37372;52.294;5.152;2022-08-21T01:04:52;101753.50;;;15.60;91.79
51289;BME280;37372;52.294;5.152;2022-08-21T01:07:18;101752.31;;;15.57;91.68
51289;BME280;37372;52.294;5.152;2022-08-21T01:09:46;101753.91;;;15.58;91.89
51289;BME280;37372;52.294;5.152;2022-08-21T01:12:12;101754.75;;;15.55;92.24
51289;BME280;37372;52.294;5.152;2022-08-21T01:14:38;101762.88;;;15.53;92.50
51289;BME280;37372;52.294;5.152;2022-08-21T01:17:05;101757.69;;;15.48;92.47
51289;BME280;37372;52.294;5.152;2022-08-21T01:19:31;101757.31;;;15.46;92.78
51289;BME280;37372;52.294;5.152;2022-08-21T01:21:56;101753.28;;;15.47;92.70
51289;BME280;37372;52.294;5.152;2022-08-21T01:24:22;101760.09;;;15.50;93.08
51289;BME280;37372;52.294;5.152;2022-08-21T01:26:49;101747.63;;;15.47;93.03
51289;BME280;37372;52.294;5.152;2022-08-21T01:32:14;101752.53;;;15.43;93.49
51289;BME280;37372;52.294;5.152;2022-08-21T01:34:43;101743.28;;;15.39;93.09
51289;BME280;37372;52.294;5.152;2022-08-21T01:37:10;101750.19;;;15.38;93.86
51289;BME280;37372;52.294;5.152;2022-08-21T01:39:36;101747.75;;;15.36;94.04
51289;BME280;37372;52.294;5.152;2022-08-21T01:42:02;101745.38;;;15.35;93.62
51289;BME280;37372;52.294;5.152;2022-08-21T01:44:28;101740.94;;;15.34;93.80
51289;BME280;37372;52.294;5.152;2022-08-21T01:46:55;101748.22;;;15.35;93.46
51289;BME280;37372;52.294;5.152;2022-08-21T01:49:21;101743.41;;;15.32;93.72
51289;BME280;37372;52.294;5.152;2022-08-21T01:51:47;101751.13;;;15.28;94.32
51289;BME280;37372;52.294;5.152;2022-08-21T01:54:12;101741.41;;;15.29;94.58
51289;BME280;37372;52.294;5.152;2022-08-21T01:56:40;101745.47;;;15.28;94.49
51289;BME280;37372;52.294;5.152;2022-08-21T01:59:06;101743.50;;;15.25;94.57
51289;BME280;37372;52.294;5.152;2022-08-21T02:01:32;101735.03;;;15.25;94.56
51289;BME280;37372;52.294;5.152;2022-08-21T02:03:57;101734.72;;;15.19;94.76
51289;BME280;37372;52.294;5.152;2022-08-21T02:06:25;101728.63;;;15.20;95.38
51289;BME280;37372;52.294;5.152;2022-08-21T02:08:50;101730.28;;;15.18;95.03
51289;BME280;37372;52.294;5.152;2022-08-21T02:11:16;101726.28;;;15.15;95.01
51289;BME280;37372;52.294;5.152;2022-08-21T02:13:42;101727.56;;;15.11;95.37
51289;BME280;37372;52.294;5.152;2022-08-21T02:16:08;101730.44;;;15.07;95.34
51289;BME280;37372;52.294;5.152;2022-08-21T02:18:34;101726.44;;;15.05;95.40
51289;BME280;37372;52.294;5.152;2022-08-21T02:21:00;101723.69;;;15.01;96.06
51289;BME280;37372;52.294;5.152;2022-08-21T02:23:25;101731.31;;;15.01;95.98
51289;BME280;37372;52.294;5.152;2022-08-21T02:25:51;101720.09;;;14.97;95.93
51289;BME280;37372;52.294;5.152;2022-08-21T02:28:16;101730.59;;;14.96;95.46
51289;BME280;37372;52.294;5.152;2022-08-21T02:30:45;101717.69;;;14.95;95.88
51289;BME280;37372;52.294;5.152;2022-08-21T02:33:11;101717.69;;;14.95;96.54
51289;BME280;37372;52.294;5.152;2022-08-21T02:35:38;101705.59;;;14.95;96.60
51289;BME280;37372;52.294;5.152;2022-08-21T02:38:06;101716.16;;;14.91;96.39
51289;BME280;37372;52.294;5.152;2022-08-21T02:40:35;101715.38;;;14.87;96.71
51289;BME280;37372;52.294;5.152;2022-08-21T02:43:02;101704.94;;;14.84;96.80
51289;BME280;37372;52.294;5.152;2022-08-21T02:45:29;101715.41;;;14.83;96.92
51289;BME280;37372;52.294;5.152;2022-08-21T02:47:59;101716.25;;;14.84;96.85
51289;BME280;37372;52.294;5.152;2022-08-21T02:50:30;101724.34;;;14.82;97.26
51289;BME280;37372;52.294;5.152;2022-08-21T02:52:56;101711.00;;;14.82;96.96
51289;BME280;37372;52.294;5.152;2022-08-21T02:55:23;101707.38;;;14.82;97.21
51289;BME280;37372;52.294;5.152;2022-08-21T02:57:51;101710.22;;;14.82;97.63
51289;BME280;37372;52.294;5.152;2022-08-21T03:00:18;101705.75;;;14.81;97.30
51289;BME280;37372;52.294;5.152;2022-08-21T03:02:44;101703.78;;;14.77;97.72
51289;BME280;37372;52.294;5.152;2022-08-21T03:05:12;101705.03;;;14.76;97.87
51289;BME280;37372;52.294;5.152;2022-08-21T03:07:38;101700.22;;;14.73;97.53
51289;BME280;37372;52.294;5.152;2022-08-21T03:10:05;101705.88;;;14.73;97.71
51289;BME280;37372;52.294;5.152;2022-08-21T03:12:30;101701.06;;;14.70;98.13
51289;BME280;37372;52.294;5.152;2022-08-21T03:14:56;101700.72;;;14.68;98.01
51289;BME280;37372;52.294;5.152;2022-08-21T03:17:22;101691.84;;;14.66;98.69
51289;BME280;37372;52.294;5.152;2022-08-21T03:19:47;101694.69;;;14.66;98.70
51289;BME280;37372;52.294;5.152;2022-08-21T03:22:13;101687.78;;;14.67;98.97
51289;BME280;37372;52.294;5.152;2022-08-21T03:24:38;101692.22;;;14.68;98.53
51289;BME280;37372;52.294;5.152;2022-08-21T03:27:03;101687.00;;;14.67;98.57
51289;BME280;37372;52.294;5.152;2022-08-21T03:29:29;101693.88;;;14.66;98.59
51289;BME280;37372;52.294;5.152;2022-08-21T03:31:54;101692.69;;;14.63;98.94
51289;BME280;37372;52.294;5.152;2022-08-21T03:34:20;101685.88;;;14.61;99.06
51289;BME280;37372;52.294;5.152;2022-08-21T03:36:46;101689.13;;;14.59;99.49
51289;BME280;37372;52.294;5.152;2022-08-21T03:39:12;101689.97;;;14.56;99.21
51289;BME280;37372;52.294;5.152;2022-08-21T03:41:37;101684.72;;;14.54;99.53
51289;BME280;37372;52.294;5.152;2022-08-21T03:44:03;101671.06;;;14.53;99.65
51289;BME280;37372;52.294;5.152;2022-08-21T03:46:28;101682.69;;;14.55;99.65
51289;BME280;37372;52.294;5.152;2022-08-21T03:48:53;101681.13;;;14.54;99.43
51289;BME280;37372;52.294;5.152;2022-08-21T03:51:20;101678.28;;;14.54;99.85
51289;BME280;37372;52.294;5.152;2022-08-21T03:53:45;101673.88;;;14.53;99.94
51289;BME280;37372;52.294;5.152;2022-08-21T03:56:10;101677.50;;;14.53;100.00
51289;BME280;37372;52.294;5.152;2022-08-21T03:58:36;101676.25;;;14.54;99.49
51289;BME280;37372;52.294;5.152;2022-08-21T04:01:04;101669.81;;;14.54;99.92
51289;BME280;37372;52.294;5.152;2022-08-21T04:03:31;101662.59;;;14.53;99.95
51289;BME280;37372;52.294;5.152;2022-08-21T04:05:56;101669.81;;;14.54;100.00
51289;BME280;37372;52.294;5.152;2022-08-21T04:08:22;101669.03;;;14.53;100.00
51289;BME280;37372;52.294;5.152;2022-08-21T04:10:50;101674.66;;;14.53;100.00
51289;BME280;37372;52.294;5.152;2022-08-21T04:13:16;101670.63;;;14.51;100.00
51289;BME280;37372;52.294;5.152;2022-08-21T04:15:41;101678.31;;;14.50;99.75
51289;BME280;37372;52.294;5.152;2022-08-21T04:18:07;101676.31;;;14.47;99.97
51289;BME280;37372;52.294;5.152;2022-08-21T04:20:33;101679.56;;;14.46;100.00
51289;BME280;37372;52.294;5.152;2022-08-21T04:22:59;101686.44;;;14.45;100.00
51289;BME280;37372;52.294;5.152;2022-08-21T04:25:25;101682.00;;;14.44;100.00
51289;BME280;37372;52.294;5.152;2022-08-21T04:27:50;101685.22;;;14.46;100.00
51289;BME280;37372;52.294;5.152;2022-08-21T04:30:16;101686.00;;;14.46;99.96
51289;BME280;37372;52.294;5.152;2022-08-21T04:32:47;101688.44;;;14.48;99.73
51289;BME280;37372;52.294;5.152;2022-08-21T04:35:14;101688.78;;;14.50;100.00
51289;BME280;37372;52.294;5.152;2022-08-21T04:37:39;101681.16;;;14.47;99.79
51289;BME280;37372;52.294;5.152;2022-08-21T04:40:05;101687.66;;;14.44;100.00
51289;BME280;37372;52.294;5.152;2022-08-21T04:42:32;101693.31;;;14.44;100.00
51289;BME280;37372;52.294;5.152;2022-08-21T04:44:58;101696.50;;;14.46;100.00
51289;BME280;37372;52.294;5.152;2022-08-21T04:47:24;101697.72;;;14.45;100.00
51289;BME280;37372;52.294;5.152;2022-08-21T04:49:50;101693.31;;;14.44;100.00
51289;BME280;37372;52.294;5.152;2022-08-21T04:52:21;101700.53;;;14.45;100.00
51289;BME280;37372;52.294;5.152;2022-08-21T04:54:48;101709.41;;;14.47;100.00
51289;BME280;37372;52.294;5.152;2022-08-21T04:57:16;101706.97;;;14.49;100.00
51289;BME280;37372;52.294;5.152;2022-08-21T04:59:46;101701.69;;;14.51;100.00
51289;BME280;37372;52.294;5.152;2022-08-21T05:02:12;101707.75;;;14.53;100.00
51289;BME280;37372;52.294;5.152;2022-08-21T05:04:42;101700.47;;;14.52;100.00
51289;BME280;37372;52.294;5.152;2022-08-21T05:07:15;101705.28;;;14.55;100.00
51289;BME280;37372;52.294;5.152;2022-08-21T05:09:42;101695.59;;;14.56;100.00
51289;BME280;37372;52.294;5.152;2022-08-21T05:12:08;101701.25;;;14.56;100.00
51289;BME280;37372;52.294;5.152;2022-08-21T05:14:34;101701.63;;;14.58;100.00
51289;BME280;37372;52.294;5.152;2022-08-21T05:17:00;101700.41;;;14.59;100.00
51289;BME280;37372;52.294;5.152;2022-08-21T05:19:26;101695.16;;;14.61;100.00
51289;BME280;37372;52.294;5.152;2022-08-21T05:21:52;101700.34;;;14.63;100.00
51289;BME280;37372;52.294;5.152;2022-08-21T05:24:17;101708.41;;;14.64;100.00
51289;BME280;37372;52.294;5.152;2022-08-21T05:26:43;101703.56;;;14.65;100.00
51289;BME280;37372;52.294;5.152;2022-08-21T05:29:09;101708.78;;;14.66;100.00
51289;BME280;37372;52.294;5.152;2022-08-21T05:31:34;101705.50;;;14.71;100.00
51289;BME280;37372;52.294;5.152;2022-08-21T05:33:59;101705.03;;;14.76;100.00
51289;BME280;37372;52.294;5.152;2022-08-21T05:36:25;101713.03;;;14.82;100.00
51289;BME280;37372;52.294;5.152;2022-08-21T05:38:50;101715.38;;;14.87;100.00
51289;BME280;37372;52.294;5.152;2022-08-21T05:41:15;101712.47;;;14.94;100.00
51289;BME280;37372;52.294;5.152;2022-08-21T05:43:41;101723.28;;;14.99;100.00
51289;BME280;37372;52.294;5.152;2022-08-21T05:46:07;101716.69;;;15.09;100.00
51289;BME280;37372;52.294;5.152;2022-08-21T05:48:33;101719.41;;;15.16;100.00
51289;BME280;37372;52.294;5.152;2022-08-21T05:51:05;101722.13;;;15.24;100.00
51289;BME280;37372;52.294;5.152;2022-08-21T05:53:30;101720.75;;;15.35;100.00
51289;BME280;37372;52.294;5.152;2022-08-21T05:55:56;101713.75;;;15.44;100.00
51289;BME280;37372;52.294;5.152;2022-08-21T05:58:22;101720.03;;;15.55;100.00
51289;BME280;37372;52.294;5.152;2022-08-21T06:00:50;101719.06;;;15.65;99.83
51289;BME280;37372;52.294;5.152;2022-08-21T06:03:25;101705.56;;;15.76;99.73
51289;BME280;37372;52.294;5.152;2022-08-21T06:05:51;101705.81;;;15.86;99.67
51289;BME280;37372;52.294;5.152;2022-08-21T06:08:17;101707.69;;;15.92;99.57
51289;BME280;37372;52.294;5.152;2022-08-21T06:10:44;101702.28;;;16.01;99.61
51289;BME280;37372;52.294;5.152;2022-08-21T06:13:10;101712.69;;;16.08;99.06
51289;BME280;37372;52.294;5.152;2022-08-21T06:15:36;101700.41;;;16.15;99.06
51289;BME280;37372;52.294;5.152;2022-08-21T06:18:01;101701.94;;;16.19;99.03
51289;BME280;37372;52.294;5.152;2022-08-21T06:20:27;101709.94;;;16.24;99.40
51289;BME280;37372;52.294;5.152;2022-08-21T06:22:53;101699.28;;;16.32;99.08
51289;BME280;37372;52.294;5.152;2022-08-21T06:25:18;101704.78;;;16.39;98.78
51289;BME280;37372;52.294;5.152;2022-08-21T06:27:44;101709.50;;;16.46;98.99
51289;BME280;37372;52.294;5.152;2022-08-21T06:30:09;101702.53;;;16.50;99.07
51289;BME280;37372;52.294;5.152;2022-08-21T06:32:35;101698.78;;;16.57;99.23
51289;BME280;37372;52.294;5.152;2022-08-21T06:35:01;101698.69;;;16.61;99.35
51289;BME280;37372;52.294;5.152;2022-08-21T06:37:27;101703.41;;;16.67;99.58
51289;BME280;37372;52.294;5.152;2022-08-21T06:39:52;101705.31;;;16.74;99.43
51289;BME280;37372;52.294;5.152;2022-08-21T06:42:17;101712.50;;;16.79;99.79
51289;BME280;37372;52.294;5.152;2022-08-21T06:44:43;101712.81;;;16.84;99.61
51289;BME280;37372;52.294;5.152;2022-08-21T06:47:09;101702.53;;;16.90;99.45
51289;BME280;37372;52.294;5.152;2022-08-21T06:49:35;101702.38;;;16.98;99.14
51289;BME280;37372;52.294;5.152;2022-08-21T06:52:00;101696.19;;;17.03;99.10
51289;BME280;37372;52.294;5.152;2022-08-21T06:54:26;101698.03;;;17.09;98.70
51289;BME280;37372;52.294;5.152;2022-08-21T06:56:51;101700.81;;;17.13;98.99
51289;BME280;37372;52.294;5.152;2022-08-21T06:59:17;101700.72;;;17.17;99.05
51289;BME280;37372;52.294;5.152;2022-08-21T07:01:43;101704.72;;;17.19;99.03
51289;BME280;37372;52.294;5.152;2022-08-21T07:04:08;101706.66;;;17.22;99.03
51289;BME280;37372;52.294;5.152;2022-08-21T07:06:34;101698.09;;;17.26;99.24
51289;BME280;37372;52.294;5.152;2022-08-21T07:08:59;101702.78;;;17.32;99.14
51289;BME280;37372;52.294;5.152;2022-08-21T07:11:26;101710.41;;;17.35;99.04
51289;BME280;37372;52.294;5.152;2022-08-21T07:13:52;101706.69;;;17.39;98.54
51289;BME280;37372;52.294;5.152;2022-08-21T07:16:20;101712.19;;;17.46;98.65
51289;BME280;37372;52.294;5.152;2022-08-21T07:18:46;101713.00;;;17.46;98.72
51289;BME280;37372;52.294;5.152;2022-08-21T07:21:11;101704.84;;;17.48;98.87
51289;BME280;37372;52.294;5.152;2022-08-21T07:23:40;101712.03;;;17.53;99.02
51289;BME280;37372;52.294;5.152;2022-08-21T07:26:06;101712.34;;;17.55;99.28
51289;BME280;37372;52.294;5.152;2022-08-21T07:28:31;101707.84;;;17.57;98.87
51289;BME280;37372;52.294;5.152;2022-08-21T07:30:58;101706.16;;;17.60;99.21
51289;BME280;37372;52.294;5.152;2022-08-21T07:33:25;101708.13;;;17.63;99.16
51289;BME280;37372;52.294;5.152;2022-08-21T07:35:51;101712.91;;;17.66;99.22
51289;BME280;37372;52.294;5.152;2022-08-21T07:38:17;101716.44;;;17.70;99.14
51289;BME280;37372;52.294;5.152;2022-08-21T07:40:44;101708.28;;;17.72;99.30
51289;BME280;37372;52.294;5.152;2022-08-21T07:43:09;101715.09;;;17.75;98.92
51289;BME280;37372;52.294;5.152;2022-08-21T07:45:36;101715.03;;;17.78;99.42
51289;BME280;37372;52.294;5.152;2022-08-21T07:48:02;101715.31;;;17.84;99.21
51289;BME280;37372;52.294;5.152;2022-08-21T07:50:28;101719.31;;;17.87;99.08
51289;BME280;37372;52.294;5.152;2022-08-21T07:52:53;101714.31;;;17.91;98.91
51289;BME280;37372;52.294;5.152;2022-08-21T07:55:19;101718.22;;;17.97;99.04
51289;BME280;37372;52.294;5.152;2022-08-21T07:57:46;101717.22;;;18.04;99.34
51289;BME280;37372;52.294;5.152;2022-08-21T08:00:15;101717.81;;;18.11;99.38
51289;BME280;37372;52.294;5.152;2022-08-21T08:02:44;101713.56;;;18.19;98.93
51289;BME280;37372;52.294;5.152;2022-08-21T08:05:11;101706.09;;;18.26;98.54
51289;BME280;37372;52.294;5.152;2022-08-21T08:07:37;101699.84;;;18.31;98.09
51289;BME280;37372;52.294;5.152;2022-08-21T08:10:04;101701.34;;;18.35;97.13
51289;BME280;37372;52.294;5.152;2022-08-21T08:12:30;101711.38;;;18.40;97.36
51289;BME280;37372;52.294;5.152;2022-08-21T08:14:57;101700.69;;;18.44;97.33
51289;BME280;37372;52.294;5.152;2022-08-21T08:17:22;101711.97;;;18.48;96.82
51289;BME280;37372;52.294;5.152;2022-08-21T08:19:49;101706.19;;;18.51;97.03
51289;BME280;37372;52.294;5.152;2022-08-21T08:22:16;101712.56;;;18.55;97.13
51289;BME280;37372;52.294;5.152;2022-08-21T08:24:44;101705.97;;;18.58;96.93
51289;BME280;37372;52.294;5.152;2022-08-21T08:27:09;101703.47;;;18.60;96.65
51289;BME280;37372;52.294;5.152;2022-08-21T08:29:35;101700.09;;;18.65;96.53
51289;BME280;37372;52.294;5.152;2022-08-21T08:32:00;101705.56;;;18.73;96.39
51289;BME280;37372;52.294;5.152;2022-08-21T08:34:26;101708.91;;;18.84;96.28
51289;BME280;37372;52.294;5.152;2022-08-21T08:36:52;101701.31;;;18.94;96.04
51289;BME280;37372;52.294;5.152;2022-08-21T08:39:18;101699.25;;;18.94;95.08
51289;BME280;37372;52.294;5.152;2022-08-21T08:41:44;101699.03;;;19.01;94.90
51289;BME280;37372;52.294;5.152;2022-08-21T08:44:12;101696.28;;;19.11;94.54
51289;BME280;37372;52.294;5.152;2022-08-21T08:46:41;101693.47;;;19.23;94.15
51289;BME280;37372;52.294;5.152;2022-08-21T08:49:24;101689.00;;;19.35;93.77
51289;BME280;37372;52.294;5.152;2022-08-21T08:51:57;101693.56;;;19.45;92.72
51289;BME280;37372;52.294;5.152;2022-08-21T08:54:29;101693.09;;;19.47;92.66
51289;BME280;37372;52.294;5.152;2022-08-21T08:56:59;101684.81;;;19.40;92.00
51289;BME280;37372;52.294;5.152;2022-08-21T08:59:56;101693.47;;;19.36;92.76
51289;BME280;37372;52.294;5.152;2022-08-21T09:02:23;101688.00;;;19.42;92.81
51289;BME280;37372;52.294;5.152;2022-08-21T09:04:50;101688.31;;;19.57;93.03
51289;BME280;37372;52.294;5.152;2022-08-21T09:07:50;101683.75;;;19.72;92.61
51289;BME280;37372;52.294;5.152;2022-08-21T09:10:25;101689.38;;;19.98;92.03
51289;BME280;37372;52.294;5.152;2022-08-21T09:13:16;101684.81;;;20.22;89.89
51289;BME280;37372;52.294;5.152;2022-08-21T09:22:07;101688.22;;;20.52;86.95
51289;BME280;37372;52.294;5.152;2022-08-21T09:25:00;101687.72;;;20.66;86.24
51289;BME280;37372;52.294;5.152;2022-08-21T09:27:20;101696.63;;;20.77;85.10
51289;BME280;37372;52.294;5.152;2022-08-21T09:29:49;101694.13;;;20.79;84.06
51289;BME280;37372;52.294;5.152;2022-08-21T09:32:24;101692.47;;;20.69;84.28
51289;BME280;37372;52.294;5.152;2022-08-21T09:34:59;101698.34;;;20.53;84.23
51289;BME280;37372;52.294;5.152;2022-08-21T09:37:26;101696.84;;;20.39;85.01
51289;BME280;37372;52.294;5.152;2022-08-21T09:39:57;101697.22;;;20.28;85.38
51289;BME280;37372;52.294;5.152;2022-08-21T09:42:30;101695.91;;;20.20;85.44
51289;BME280;37372;52.294;5.152;2022-08-21T09:45:17;101690.22;;;20.20;85.68
51289;BME280;37372;52.294;5.152;2022-08-21T09:47:43;101688.69;;;20.28;85.83
51289;BME280;37372;52.294;5.152;2022-08-21T09:50:16;101685.56;;;20.35;85.12
51289;BME280;37372;52.294;5.152;2022-08-21T09:52:44;101683.91;;;20.47;84.45
51289;BME280;37372;52.294;5.152;2022-08-21T09:55:16;101687.38;;;20.64;83.52
51289;BME280;37372;52.294;5.152;2022-08-21T09:58:03;101686.34;;;20.80;82.39
51289;BME280;37372;52.294;5.152;2022-08-21T10:00:31;101681.50;;;20.90;81.99
51289;BME280;37372;52.294;5.152;2022-08-21T10:03:18;101685.97;;;21.00;81.35
51289;BME280;37372;52.294;5.152;2022-08-21T10:05:55;101688.56;;;21.07;80.90
51289;BME280;37372;52.294;5.152;2022-08-21T10:08:23;101691.75;;;21.09;80.12
51289;BME280;37372;52.294;5.152;2022-08-21T10:11:10;101692.66;;;21.06;79.59
51289;BME280;37372;52.294;5.152;2022-08-21T10:13:55;101694.03;;;20.92;78.76
51289;BME280;37372;52.294;5.152;2022-08-21T10:24:37;101692.66;;;20.31;81.04
51289;BME280;37372;52.294;5.152;2022-08-21T10:32:16;101693.66;;;20.02;83.50
51289;BME280;37372;52.294;5.152;2022-08-21T10:35:13;101690.97;;;19.99;84.39
51289;BME280;37372;52.294;5.152;2022-08-21T10:38:24;101687.66;;;20.00;84.59
51289;BME280;37372;52.294;5.152;2022-08-21T10:41:11;101685.34;;;20.08;85.04
51289;BME280;37372;52.294;5.152;2022-08-21T10:46:43;101673.16;;;20.29;83.55
51289;BME280;37372;52.294;5.152;2022-08-21T10:49:39;101688.81;;;20.47;82.08
51289;BME280;37372;52.294;5.152;2022-08-21T10:55:02;101670.03;;;20.80;80.55
51289;BME280;37372;52.294;5.152;2022-08-21T10:57:46;101679.78;;;20.92;76.73
51289;BME280;37372;52.294;5.152;2022-08-21T11:00:16;101680.63;;;21.02;73.76
51289;BME280;37372;52.294;5.152;2022-08-21T11:03:25;101673.03;;;21.08;71.32
51289;BME280;37372;52.294;5.152;2022-08-21T11:05:55;101666.09;;;21.18;70.88
51289;BME280;37372;52.294;5.152;2022-08-21T11:08:29;101671.50;;;21.25;69.93
51289;BME280;37372;52.294;5.152;2022-08-21T11:11:05;101677.38;;;21.31;70.09
51289;BME280;37372;52.294;5.152;2022-08-21T11:13:45;101661.13;;;21.41;70.21
51289;BME280;37372;52.294;5.152;2022-08-21T11:16:29;101664.78;;;21.51;70.26
51289;BME280;37372;52.294;5.152;2022-08-21T11:19:12;101666.56;;;21.66;69.43
51289;BME280;37372;52.294;5.152;2022-08-21T11:24:35;101675.16;;;22.13;68.80
51289;BME280;37372;52.294;5.152;2022-08-21T11:27:36;101675.50;;;22.24;67.36
51289;BME280;37372;52.294;5.152;2022-08-21T11:30:06;101679.28;;;22.11;66.68
51289;BME280;37372;52.294;5.152;2022-08-21T11:33:06;101682.78;;;21.88;65.89
51289;BME280;37372;52.294;5.152;2022-08-21T11:35:48;101681.50;;;21.89;66.24
51289;BME280;37372;52.294;5.152;2022-08-21T11:38:40;101683.56;;;22.07;66.57
51289;BME280;37372;52.294;5.152;2022-08-21T11:43:43;101690.09;;;22.35;63.27
51289;BME280;37372;52.294;5.152;2022-08-21T11:46:27;101691.53;;;22.30;63.88
51289;BME280;37372;52.294;5.152;2022-08-21T11:49:27;101697.09;;;22.25;63.98
51289;BME280;37372;52.294;5.152;2022-08-21T11:52:07;101690.09;;;22.26;64.82
51289;BME280;37372;52.294;5.152;2022-08-21T11:54:44;101689.47;;;22.22;64.24
51289;BME280;37372;52.294;5.152;2022-08-21T11:59:47;101691.34;;;22.16;64.95
51289;BME280;37372;52.294;5.152;2022-08-21T12:02:18;101692.81;;;22.20;64.90
51289;BME280;37372;52.294;5.152;2022-08-21T12:04:52;101684.69;;;22.19;63.77
51289;BME280;37372;52.294;5.152;2022-08-21T12:09:57;101689.47;;;22.03;63.63
51289;BME280;37372;52.294;5.152;2022-08-21T12:12:30;101684.34;;;21.89;63.68
51289;BME280;37372;52.294;5.152;2022-08-21T12:15:15;101690.06;;;21.89;64.00
51289;BME280;37372;52.294;5.152;2022-08-21T12:17:41;101685.94;;;21.99;64.50
51289;BME280;37372;52.294;5.152;2022-08-21T12:20:44;101685.63;;;22.16;64.02
51289;BME280;37372;52.294;5.152;2022-08-21T12:25:47;101699.94;;;22.43;61.15
51289;BME280;37372;52.294;5.152;2022-08-21T12:28:24;101693.56;;;22.58;61.05
51289;BME280;37372;52.294;5.152;2022-08-21T12:30:50;101692.56;;;22.79;60.31
51289;BME280;37372;52.294;5.152;2022-08-21T12:33:26;101693.00;;;22.96;59.87
51289;BME280;37372;52.294;5.152;2022-08-21T12:36:03;101693.00;;;23.05;59.69
51289;BME280;37372;52.294;5.152;2022-08-21T12:38:50;101701.22;;;23.12;59.45
51289;BME280;37372;52.294;5.152;2022-08-21T12:41:21;101702.94;;;23.19;60.47
51289;BME280;37372;52.294;5.152;2022-08-21T12:43:53;101700.56;;;23.17;60.62
51289;BME280;37372;52.294;5.152;2022-08-21T12:46:58;101695.94;;;23.20;60.53
51289;BME280;37372;52.294;5.152;2022-08-21T12:49:45;101702.50;;;23.11;60.76
51289;BME280;37372;52.294;5.152;2022-08-21T12:52:23;101706.91;;;23.22;60.57
51289;BME280;37372;52.294;5.152;2022-08-21T12:54:49;101709.91;;;23.27;59.40
51289;BME280;37372;52.294;5.152;2022-08-21T12:57:24;101721.41;;;23.18;59.33
51289;BME280;37372;52.294;5.152;2022-08-21T12:59:59;101715.06;;;23.05;59.79
51289;BME280;37372;52.294;5.152;2022-08-21T13:02:29;101713.19;;;22.92;59.24
51289;BME280;37372;52.294;5.152;2022-08-21T13:04:57;101709.38;;;22.86;59.92
51289;BME280;37372;52.294;5.152;2022-08-21T13:07:32;101701.78;;;22.74;60.37
51289;BME280;37372;52.294;5.152;2022-08-21T13:10:03;101709.75;;;22.61;61.39
51289;BME280;37372;52.294;5.152;2022-08-21T13:12:29;101711.69;;;22.45;61.62
51289;BME280;37372;52.294;5.152;2022-08-21T13:14:58;101709.16;;;22.38;62.42
51289;BME280;37372;52.294;5.152;2022-08-21T13:17:26;101716.47;;;22.30;61.53
51289;BME280;37372;52.294;5.152;2022-08-21T13:20:00;101715.69;;;22.29;61.15
51289;BME280;37372;52.294;5.152;2022-08-21T13:22:27;101715.50;;;22.33;60.99
51289;BME280;37372;52.294;5.152;2022-08-21T13:24:53;101712.78;;;22.39;61.14
51289;BME280;37372;52.294;5.152;2022-08-21T13:27:23;101714.53;;;22.45;61.45
51289;BME280;37372;52.294;5.152;2022-08-21T13:30:00;101712.63;;;22.51;61.13
51289;BME280;37372;52.294;5.152;2022-08-21T13:32:27;101709.63;;;22.55;61.14
51289;BME280;37372;52.294;5.152;2022-08-21T13:34:54;101707.06;;;22.57;61.17
51289;BME280;37372;52.294;5.152;2022-08-21T13:37:20;101706.44;;;22.62;61.15
51289;BME280;37372;52.294;5.152;2022-08-21T13:39:51;101710.22;;;22.68;60.53
51289;BME280;37372;52.294;5.152;2022-08-21T13:42:16;101717.38;;;22.73;60.08